Bermuda Spirit — C6XT2 — position and weather

sailwx.info

Track history (hours):
 
Tides and Currents Weather Stations Pressure Air Temp Water Temp Dewpoint Dewpoint Depression Visibility Wind Speed Wind Dir Waves Ship Positions

Bermuda Spirit

Last reported at 2015-Jul-29 16:33 UTC. Time now 2015-Jul-30 00:02 UTC.
Position N 41°53' E 029°52'.

Length 274 m; draft 9 m.

Type: Tanker. MMSI: 311020900.

Date/timePositionNaut miles runAvg speedWind from/ knotsBaromVisibWave heightAir tempDewpointWater temp
2015-Jul-29 16:33N 41°53' E 029°52'9 8.6
2015-Jul-29 15:32N 41°46' E 029°45'  
2015-Jul-24 11:33N 44°03' E 036°23'1515.4
2015-Jul-24 10:34N 44°11' E 036°42'2813.0
2015-Jul-24 08:23N 44°23' E 037°17'1112.4
2015-Jul-24 07:30N 44°28' E 037°31'1212.4
2015-Jul-24 06:33N 44°34' E 037°45'9 8.8
2015-Jul-24 05:33N 44°42' E 037°50'0 0.3
2015-Jul-24 04:32N 44°42' E 037°50'0 0.0
2015-Jul-24 03:32N 44°42' E 037°50'0 0.0
2015-Jul-24 02:32N 44°42' E 037°50'0 0.0
2015-Jul-24 01:32N 44°42' E 037°50'0 0.0
2015-Jul-24 00:32N 44°42' E 037°50'0 0.0
2015-Jul-23 23:32N 44°42' E 037°50'0 0.0
2015-Jul-23 22:32N 44°42' E 037°50'0 0.0
2015-Jul-23 21:32N 44°42' E 037°50'0 0.0
2015-Jul-23 20:32N 44°42' E 037°50'0 0.0
2015-Jul-23 19:32N 44°42' E 037°50'0 0.0
2015-Jul-23 18:32N 44°42' E 037°50'0 0.0
2015-Jul-23 17:32N 44°42' E 037°50'0 0.0
2015-Jul-23 16:32N 44°42' E 037°50'0 0.0
2015-Jul-23 15:32N 44°42' E 037°50'0 0.0
2015-Jul-23 14:32N 44°42' E 037°50'0 0.0
2015-Jul-23 13:32N 44°42' E 037°50'0 0.0
2015-Jul-23 12:32N 44°42' E 037°50'0 0.0
2015-Jul-23 11:32N 44°42' E 037°50'0 0.0
2015-Jul-23 10:32N 44°42' E 037°50'0 0.0
2015-Jul-23 09:32N 44°42' E 037°50'0 0.0
2015-Jul-23 08:32N 44°42' E 037°50'0 0.0
2015-Jul-23 07:32N 44°42' E 037°50'0 0.0
2015-Jul-23 06:33N 44°42' E 037°50'4 3.5
2015-Jul-23 05:33N 44°39' E 037°51'5 4.8
2015-Jul-23 04:33N 44°34' E 037°51'1110.7
2015-Jul-23 03:33N 44°24' E 037°46'1 1.2
2015-Jul-23 02:33N 44°23' E 037°45'0 0.0
2015-Jul-23 01:33N 44°23' E 037°45'0 0.1
2015-Jul-23 00:33N 44°23' E 037°45'0 0.2
2015-Jul-22 23:33N 44°23' E 037°45'0 0.1
2015-Jul-22 22:33N 44°23' E 037°45'0 0.2
2015-Jul-22 21:33N 44°23' E 037°45'13 0.5
2015-Jul-21 19:05N 44°20' E 037°28'0 0.7
2015-Jul-21 18:33N 44°20' E 037°28'1 0.7
2015-Jul-21 17:33N 44°19' E 037°27'1 0.6
2015-Jul-21 16:33N 44°19' E 037°27'1 0.6
2015-Jul-21 15:33N 44°18' E 037°27'1 0.6
2015-Jul-21 14:33N 44°18' E 037°26'1 0.6
2015-Jul-21 13:33N 44°17' E 037°26'1 0.5
2015-Jul-21 12:33N 44°17' E 037°25'1 0.5
2015-Jul-21 11:33N 44°16' E 037°25'1 0.5
2015-Jul-21 10:33N 44°16' E 037°24'0 0.5
2015-Jul-21 09:33N 44°16' E 037°24'0 0.3
2015-Jul-21 08:33N 44°15' E 037°23'0 0.1
2015-Jul-21 07:33N 44°15' E 037°23'0 0.3
2015-Jul-21 06:33N 44°15' E 037°24'0 0.4
2015-Jul-21 05:33N 44°15' E 037°24'1 0.5
2015-Jul-21 04:33N 44°15' E 037°25'1 0.6
2015-Jul-21 03:33N 44°15' E 037°26'1 0.6
2015-Jul-21 02:33N 44°15' E 037°26'1 0.6
2015-Jul-21 01:33N 44°15' E 037°27'1 0.7
2015-Jul-21 00:33N 44°15' E 037°28'1 0.8
2015-Jul-20 23:33N 44°15' E 037°29'1 0.8
2015-Jul-20 22:33N 44°15' E 037°30'1 0.7
2015-Jul-20 21:33N 44°16' E 037°31'1 0.6
2015-Jul-20 20:33N 44°16' E 037°32'0 0.5
2015-Jul-20 19:33N 44°16' E 037°33'4 3.6
2015-Jul-20 18:33N 44°19' E 037°35'1 0.6
2015-Jul-20 17:33N 44°20' E 037°35'1 0.6
2015-Jul-20 16:31N 44°19' E 037°35'1 0.7
2015-Jul-20 15:33N 44°19' E 037°35'1 0.7
2015-Jul-20 14:33N 44°18' E 037°34'1 0.7
2015-Jul-20 13:33N 44°17' E 037°34'1 0.7
2015-Jul-20 12:33N 44°17' E 037°34'1 0.6
2015-Jul-20 11:33N 44°16' E 037°34'1 0.5
2015-Jul-20 10:33N 44°16' E 037°35'1 0.6
2015-Jul-20 09:33N 44°15' E 037°35'1 0.5
2015-Jul-20 08:33N 44°15' E 037°36'0 0.4
2015-Jul-20 07:33N 44°15' E 037°37'0 0.5
2015-Jul-20 06:33N 44°15' E 037°37'0 0.4
2015-Jul-20 05:33N 44°15' E 037°38'0 0.2
2015-Jul-20 04:33N 44°15' E 037°38'0 0.1
2015-Jul-20 03:33N 44°15' E 037°38'0 0.2
2015-Jul-20 02:33N 44°15' E 037°38'1 0.3
2015-Jul-19 23:33N 44°14' E 037°37'1 0.5
2015-Jul-19 22:28N 44°14' E 037°36'0 0.3
2015-Jul-19 21:29N 44°14' E 037°37'1 0.4
2015-Jul-19 20:05N 44°13' E 037°37'9 2.9
2015-Jul-19 17:07N 44°08' E 037°26'  
Track history (hours):
 
Tides and Currents Weather Stations Pressure Air Temp Water Temp Dewpoint Dewpoint Depression Visibility Wind Speed Wind Dir Waves Ship Positions

Bermuda Spirit

Last reported at 2015-Jul-29 16:33 UTC. Time now 2015-Jul-30 00:02 UTC.
Position N 41°53' E 029°52'.

Length 274 m; draft 9 m.

Type: Tanker. MMSI: 311020900.

Date/timePositionNaut miles runAvg speedWind from/ knotsBaromVisibWave heightAir tempDewpointWater temp
2015-Jul-29 16:33N 41°53' E 029°52'9 8.6
2015-Jul-29 15:32N 41°46' E 029°45'  
2015-Jul-24 11:33N 44°03' E 036°23'1515.4
2015-Jul-24 10:34N 44°11' E 036°42'2813.0
2015-Jul-24 08:23N 44°23' E 037°17'1112.4
2015-Jul-24 07:30N 44°28' E 037°31'1212.4
2015-Jul-24 06:33N 44°34' E 037°45'9 8.8
2015-Jul-24 05:33N 44°42' E 037°50'0 0.3
2015-Jul-24 04:32N 44°42' E 037°50'0 0.0
2015-Jul-24 03:32N 44°42' E 037°50'0 0.0
2015-Jul-24 02:32N 44°42' E 037°50'0 0.0
2015-Jul-24 01:32N 44°42' E 037°50'0 0.0
2015-Jul-24 00:32N 44°42' E 037°50'0 0.0
2015-Jul-23 23:32N 44°42' E 037°50'0 0.0
2015-Jul-23 22:32N 44°42' E 037°50'0 0.0
2015-Jul-23 21:32N 44°42' E 037°50'0 0.0
2015-Jul-23 20:32N 44°42' E 037°50'0 0.0
2015-Jul-23 19:32N 44°42' E 037°50'0 0.0
2015-Jul-23 18:32N 44°42' E 037°50'0 0.0
2015-Jul-23 17:32N 44°42' E 037°50'0 0.0
2015-Jul-23 16:32N 44°42' E 037°50'0 0.0
2015-Jul-23 15:32N 44°42' E 037°50'0 0.0
2015-Jul-23 14:32N 44°42' E 037°50'0 0.0
2015-Jul-23 13:32N 44°42' E 037°50'0 0.0
2015-Jul-23 12:32N 44°42' E 037°50'0 0.0
2015-Jul-23 11:32N 44°42' E 037°50'0 0.0
2015-Jul-23 10:32N 44°42' E 037°50'0 0.0
2015-Jul-23 09:32N 44°42' E 037°50'0 0.0
2015-Jul-23 08:32N 44°42' E 037°50'0 0.0
2015-Jul-23 07:32N 44°42' E 037°50'0 0.0
2015-Jul-23 06:33N 44°42' E 037°50'4 3.5
2015-Jul-23 05:33N 44°39' E 037°51'5 4.8
2015-Jul-23 04:33N 44°34' E 037°51'1110.7
2015-Jul-23 03:33N 44°24' E 037°46'1 1.2
2015-Jul-23 02:33N 44°23' E 037°45'0 0.0
2015-Jul-23 01:33N 44°23' E 037°45'0 0.1
2015-Jul-23 00:33N 44°23' E 037°45'0 0.2
2015-Jul-22 23:33N 44°23' E 037°45'0 0.1
2015-Jul-22 22:33N 44°23' E 037°45'0 0.2
2015-Jul-22 21:33N 44°23' E 037°45'13 0.5
2015-Jul-21 19:05N 44°20' E 037°28'0 0.7
2015-Jul-21 18:33N 44°20' E 037°28'1 0.7
2015-Jul-21 17:33N 44°19' E 037°27'1 0.6
2015-Jul-21 16:33N 44°19' E 037°27'1 0.6
2015-Jul-21 15:33N 44°18' E 037°27'1 0.6
2015-Jul-21 14:33N 44°18' E 037°26'1 0.6
2015-Jul-21 13:33N 44°17' E 037°26'1 0.5
2015-Jul-21 12:33N 44°17' E 037°25'1 0.5
2015-Jul-21 11:33N 44°16' E 037°25'1 0.5
2015-Jul-21 10:33N 44°16' E 037°24'0 0.5
2015-Jul-21 09:33N 44°16' E 037°24'0 0.3
2015-Jul-21 08:33N 44°15' E 037°23'0 0.1
2015-Jul-21 07:33N 44°15' E 037°23'0 0.3
2015-Jul-21 06:33N 44°15' E 037°24'0 0.4
2015-Jul-21 05:33N 44°15' E 037°24'1 0.5
2015-Jul-21 04:33N 44°15' E 037°25'1 0.6
2015-Jul-21 03:33N 44°15' E 037°26'1 0.6
2015-Jul-21 02:33N 44°15' E 037°26'1 0.6
2015-Jul-21 01:33N 44°15' E 037°27'1 0.7
2015-Jul-21 00:33N 44°15' E 037°28'1 0.8
2015-Jul-20 23:33N 44°15' E 037°29'1 0.8
2015-Jul-20 22:33N 44°15' E 037°30'1 0.7
2015-Jul-20 21:33N 44°16' E 037°31'1 0.6
2015-Jul-20 20:33N 44°16' E 037°32'0 0.5
2015-Jul-20 19:33N 44°16' E 037°33'4 3.6
2015-Jul-20 18:33N 44°19' E 037°35'1 0.6
2015-Jul-20 17:33N 44°20' E 037°35'1 0.6
2015-Jul-20 16:31N 44°19' E 037°35'1 0.7
2015-Jul-20 15:33N 44°19' E 037°35'1 0.7
2015-Jul-20 14:33N 44°18' E 037°34'1 0.7
2015-Jul-20 13:33N 44°17' E 037°34'1 0.7
2015-Jul-20 12:33N 44°17' E 037°34'1 0.6
2015-Jul-20 11:33N 44°16' E 037°34'1 0.5
2015-Jul-20 10:33N 44°16' E 037°35'1 0.6
2015-Jul-20 09:33N 44°15' E 037°35'1 0.5
2015-Jul-20 08:33N 44°15' E 037°36'0 0.4
2015-Jul-20 07:33N 44°15' E 037°37'0 0.5
2015-Jul-20 06:33N 44°15' E 037°37'0 0.4
2015-Jul-20 05:33N 44°15' E 037°38'0 0.2
2015-Jul-20 04:33N 44°15' E 037°38'0 0.1
2015-Jul-20 03:33N 44°15' E 037°38'0 0.2
2015-Jul-20 02:33N 44°15' E 037°38'1 0.3
2015-Jul-19 23:33N 44°14' E 037°37'1 0.5
2015-Jul-19 22:28N 44°14' E 037°36'0 0.3
2015-Jul-19 21:29N 44°14' E 037°37'1 0.4
2015-Jul-19 20:05N 44°13' E 037°37'9 2.9
2015-Jul-19 17:07N 44°08' E 037°26'  

Dump ship's entire track history